Dunedin Airport


Codes: NZDN/DUD
Name: Dunedin Airport
City: Dunedin
Country: New Zealand
Elevation: 4 ft.
Website:
Wikipedia:

Photos at Dunedin Airport


   Photos courtesy of SpottingLog. You can add your own sightings and photos by signing up for a free trial today.



No photos found.

Weather at Dunedin Airport


Time (UTC)DescriptionTempratureWindCloud coverageVisibilityPressureHumidity
17-Jun-2024 06:00Light Rain8°C4 mph, SE98%10000m1011hPa90%
17-Jun-2024 09:00Light Rain8°C7 mph, SE99%10000m1014hPa91%
17-Jun-2024 12:00Light Rain8°C7 mph, E100%10000m1018hPa92%
17-Jun-2024 15:00Light Rain8°C7 mph, E100%10000m1020hPa92%
17-Jun-2024 18:00Light Rain8°C7 mph, E100%10000m1021hPa92%
17-Jun-2024 21:00Light Rain8°C7 mph, E100%10000m1023hPa92%
18-Jun-2024 00:00Light Rain8°C9 mph, E100%10000m1024hPa88%
18-Jun-2024 03:00Light Rain8°C9 mph, E91%10000m1023hPa83%
18-Jun-2024 06:00Broken Clouds7°C9 mph, NE82%10000m1024hPa80%
18-Jun-2024 09:00Scattered Clouds7°C9 mph, NE49%10000m1024hPa73%
18-Jun-2024 12:00Scattered Clouds5°C7 mph, NE46%10000m1025hPa84%
18-Jun-2024 15:00Few Clouds4°C7 mph, NE20%10000m1024hPa85%
18-Jun-2024 18:00Scattered Clouds5°C7 mph, NE25%10000m1023hPa81%
18-Jun-2024 21:00Overcast Clouds7°C9 mph, NE91%10000m1024hPa73%
19-Jun-2024 00:00Overcast Clouds8°C11 mph, NE95%10000m1023hPa67%
19-Jun-2024 03:00Broken Clouds8°C11 mph, NE63%10000m1022hPa69%
19-Jun-2024 06:00Broken Clouds7°C11 mph, NE73%10000m1022hPa80%
19-Jun-2024 09:00Overcast Clouds7°C11 mph, NE100%10000m1022hPa80%
19-Jun-2024 12:00Overcast Clouds8°C11 mph, NE90%10000m1022hPa80%
19-Jun-2024 15:00Overcast Clouds8°C9 mph, NE100%10000m1022hPa81%
19-Jun-2024 18:00Overcast Clouds9°C11 mph, NE97%10000m1021hPa83%
19-Jun-2024 21:00Overcast Clouds9°C9 mph, NE100%10000m1022hPa82%
20-Jun-2024 00:00Light Rain10°C9 mph, NE100%10000m1021hPa82%
20-Jun-2024 03:00Overcast Clouds10°C9 mph, NE100%10000m1020hPa77%
20-Jun-2024 06:00Light Rain9°C9 mph, NE100%10000m1020hPa86%
20-Jun-2024 09:00Light Rain10°C9 mph, NE100%10000m1020hPa85%
20-Jun-2024 12:00Overcast Clouds10°C9 mph, NE100%10000m1020hPa80%
20-Jun-2024 15:00Overcast Clouds10°C7 mph, NE100%10000m1019hPa83%
20-Jun-2024 18:00Overcast Clouds9°C7 mph, NE100%10000m1019hPa84%
20-Jun-2024 21:00Overcast Clouds7°C4 mph, N100%10000m1019hPa90%
21-Jun-2024 00:00Overcast Clouds10°C4 mph, NE100%10000m1018hPa75%
21-Jun-2024 03:00Overcast Clouds11°C4 mph, NE100%10000m1016hPa75%
21-Jun-2024 06:00Overcast Clouds7°C2 mph, N100%10000m1016hPa94%
21-Jun-2024 09:00Overcast Clouds6°C2 mph, N100%10000m1016hPa93%
21-Jun-2024 12:00Overcast Clouds5°C2 mph, N100%10000m1016hPa91%
21-Jun-2024 15:00Overcast Clouds5°C2 mph, NW100%10000m1015hPa90%
21-Jun-2024 18:00Overcast Clouds6°C2 mph, NW100%10000m1014hPa89%
21-Jun-2024 21:00Overcast Clouds6°C2 mph, NW95%10000m1014hPa89%
22-Jun-2024 00:00Overcast Clouds11°C0 mph, NE96%10000m1012hPa72%
22-Jun-2024 03:00Broken Clouds11°C2 mph, E54%10000m1010hPa74%